• Join FlightAware (Why Join?)
  • Login
  • US Flag 
06:14AM EDT


 

Airport Tracker/Info


-or-


 

Live Flight TrackerFlight Track Log ✈ PDT4373 ✈ 21-Oct-2013 ✈ KBGM - KPHL

Flight Track Log - Related Links

Times and Time Zones

All times are in EDT time to prevent confusion due to time zone crossing. See the PDT4373 flight status page for this flight to view local times or setup timezone preferences in your user account.

Time Position Orientation Groundspeed Altitude Reporting Facility
EDT Latitude Longitude Course Direction KTS MPH feet Rate Location/Type
11:41AM 41.9591 -75.8981 180° South  Level Estimated
11:42AM 41.8968 -75.8779 154° Southeast  Level Estimated
11:43AM 41.8345 -75.8577 160° South  Level Estimated
11:44AM 41.7721 -75.8375 159° South  Level Estimated
11:45AM 41.7083 -75.8287 174° South  Level FlightAware Approximate
11:46AM 41.6445 -75.8199 174° South  Level FlightAware Approximate
11:47AM 41.5823 -75.7990 161° South  Level Estimated
11:48AM 41.5205 -75.7762 165° South  Level FlightAware Approximate
11:49AM 41.4586 -75.7535 165° South  Level FlightAware Approximate
11:50AM 41.3964 -75.7329 162° South  Level Estimated
11:51AM 41.3353 -75.7072 162° South  Level FlightAware Approximate
11:52AM 41.2741 -75.6814 162° South  Level FlightAware Approximate
11:53AM 41.2130 -75.6557 162° South  Level FlightAware Approximate
11:54AM 41.1518 -75.6301 162° South  Level FlightAware Approximate
11:55AM 41.0893 -75.6107 163° South  Level Estimated
11:56AM 41.0284 -75.5843 162° South  Level FlightAware Approximate
11:57AM 40.9674 -75.5579 162° South  Level FlightAware Approximate
11:58AM 40.9064 -75.5316 162° South  Level FlightAware Approximate
11:59AM 40.8438 -75.5137 190° South  Level Estimated
12:00PM 40.7797 -75.5111 178° South  Level FlightAware Approximate
12:01PM 40.7155 -75.5086 178° South  Level FlightAware Approximate
12:02PM 40.6515 -75.5060 178° South  Level FlightAware Approximate
12:03PM 40.5894 -75.4847 187° South  Level Estimated
12:03PM 40.6833 -75.4667 182° South 255 293 6,600  Level Philadelphia TRACON
12:04PM 40.5273 -75.4634 190° South  Level Estimated
12:04PM 40.6167 -75.4833 191° South 245 282 5,600  Level Philadelphia TRACON
12:05PM 40.4650 -75.4829 193° South  Level FlightAware Approximate
12:05PM 40.5500 -75.4833 180° South 235 270 5,000  Level Philadelphia TRACON
12:06PM 40.4026 -75.5024 193° South  Level FlightAware Approximate
12:06PM 40.4833 -75.4500 159° South 237 273 5,000  Level Philadelphia TRACON
12:07PM 40.3426 -75.4726 180° South  Level Estimated
12:07PM 40.4500 -75.4000 131° Southeast 231 266 5,000  Level Philadelphia TRACON
12:08PM 40.2826 -75.4429 143° Southeast  Level Estimated
12:08PM 40.4167 -75.3500 131° Southeast 230 265 5,000  Level Philadelphia TRACON
12:09PM 40.2185 -75.4454 182° South  Level FlightAware Approximate
12:09PM 40.3500 -75.2833 143° Southeast 230 265 4,600  Level Philadelphia TRACON
12:10PM 40.3167 -75.2167 123° Southeast 242 278 4,000 -300 Descending Philadelphia TRACON
12:11PM 40.2667 -75.1667 143° Southeast 228 262 4,000  Level Philadelphia TRACON
12:12PM 40.2167 -75.1167 143° Southeast 228 262 4,000  Level Philadelphia TRACON
12:13PM 40.1500 -75.0667 150° Southeast 225 259 4,000  Level Philadelphia TRACON
12:14PM 40.1000 -75.0667 180° South 221 254 4,000 -300 Level Philadelphia TRACON
12:15PM 40.0333 -75.0667 180° South 220 253 3,400 -840 Descending Philadelphia TRACON
12:16PM 39.9833 -75.0833 194° South 196 226 2,400 -840 Descending Philadelphia TRACON
12:17PM 39.9333 -75.1000 194° South 171 197 1,800 -600 Descending Philadelphia TRACON
12:18PM 39.9000 -75.1333 217° Southwest 143 165 1,300 -600 Descending Philadelphia TRACON
12:19PM 39.8833 -75.1833 247° West 105 121 600 -720 Descending Philadelphia TRACON